Time;durP1;ratioP1;P1;durP2;ratioP2;P2;SDS_P1;SDS_P2;PMS_P1;PMS_P2;Temp;Humidity;BMP_temperature;BMP_pressure;BME280_temperature;BME280_humidity;BME280_pressure;Samples;Min_cycle;Max_cycle;Signal;HPM_P1;HPM_P2
2022/01/04 00:00:44;;;;;;;1.13;0.50;;;10.80;99.90;;;;;;5024541;28;20037;-65
2022/01/04 00:03:10;;;;;;;1.42;0.50;;;11.60;99.90;;;;;;5024689;28;20033;-65
2022/01/04 00:05:37;;;;;;;2.17;0.70;;;11.10;99.90;;;;;;5024983;28;20053;-65
2022/01/04 00:08:08;;;;;;;1.08;0.50;;;11.50;99.90;;;;;;5026802;28;20026;-66
2022/01/04 00:10:34;;;;;;;0.50;0.40;;;10.40;99.90;;;;;;5028418;28;20111;-65
2022/01/04 00:15:44;;;;;;;1.20;0.50;;;11.40;99.90;;;;;;5026123;28;20076;-65
2022/01/04 00:18:13;;;;;;;1.52;0.57;;;11.50;99.90;;;;;;5024658;28;20065;-65
2022/01/04 00:20:38;;;;;;;1.60;0.57;;;11.30;99.90;;;;;;5024240;28;20100;-65
2022/01/04 00:23:05;;;;;;;1.48;0.60;;;10.70;99.90;;;;;;5027204;28;20075;-65
2022/01/04 00:25:31;;;;;;;1.00;0.50;;;11.40;99.90;;;;;;5026527;28;20495;-65
2022/01/04 00:27:58;;;;;;;1.58;0.60;;;11.20;99.90;;;;;;5024599;28;20050;-65
2022/01/04 00:30:28;;;;;;;1.77;0.60;;;11.00;99.90;;;;;;5024346;28;20030;-65
2022/01/04 00:32:55;;;;;;;1.13;0.60;;;8.30;99.90;;;;;;5024866;28;20531;-65
2022/01/04 00:35:20;;;;;;;1.55;0.60;;;8.70;99.90;;;;;;5024249;28;20363;-65
2022/01/04 00:37:46;;;;;;;1.10;0.50;;;10.20;99.90;;;;;;5028481;28;20109;-65
2022/01/04 00:40:12;;;;;;;1.27;0.55;;;11.40;99.90;;;;;;5026048;28;20060;-64
2022/01/04 00:42:38;;;;;;;2.00;0.52;;;11.20;99.90;;;;;;5024590;28;20083;-65
2022/01/04 00:45:04;;;;;;;1.25;0.50;;;12.60;99.90;;;;;;5025947;28;20108;-65
2022/01/04 00:47:43;;;;;;;1.15;0.50;;;9.80;99.90;;;;;;5025891;28;20043;-65
2022/01/04 00:50:09;;;;;;;0.68;0.40;;;12.90;99.90;;;;;;5024946;28;20026;-64
2022/01/04 00:52:35;;;;;;;0.85;0.40;;;11.30;99.90;;;;;;5027908;28;20021;-65
2022/01/04 00:55:01;;;;;;;1.73;0.40;;;11.30;99.90;;;;;;5025767;28;20029;-65
2022/01/04 00:57:27;;;;;;;0.55;0.35;;;11.30;99.90;;;;;;5025880;28;20060;-66
2022/01/04 00:59:52;;;;;;;1.02;0.40;;;11.20;99.90;;;;;;5024346;28;20029;-65
2022/01/04 01:02:18;;;;;;;0.68;0.40;;;10.80;99.90;;;;;;5030173;28;20022;-66
2022/01/04 01:04:44;;;;;;;1.60;0.40;;;13.10;99.90;;;;;;5032628;28;20040;-65
2022/01/04 01:07:10;;;;;;;1.33;0.50;;;11.10;99.90;;;;;;5027874;28;20036;-65
2022/01/04 01:09:44;;;;;;;0.75;0.40;;;10.00;99.90;;;;;;5029390;28;20559;-65
2022/01/04 01:12:11;;;;;;;1.23;0.40;;;11.10;99.90;;;;;;5029864;28;20025;-65
2022/01/04 01:14:37;;;;;;;1.92;0.50;;;10.40;99.90;;;;;;5028376;28;20022;-65
2022/01/04 01:17:02;;;;;;;1.73;0.60;;;11.00;99.90;;;;;;5029762;28;20033;-65
2022/01/04 01:19:28;;;;;;;1.02;0.40;;;9.80;99.90;;;;;;5030634;28;20045;-65
2022/01/04 01:21:54;;;;;;;2.40;0.70;;;11.20;99.90;;;;;;5028971;28;20455;-65
2022/01/04 01:24:20;;;;;;;1.90;0.50;;;11.20;99.90;;;;;;5028568;28;20025;-65
2022/01/04 01:26:45;;;;;;;1.33;0.50;;;11.20;99.90;;;;;;5028999;28;20114;-65
2022/01/04 01:29:11;;;;;;;1.00;0.50;;;10.20;99.90;;;;;;5029047;28;20429;-65
2022/01/04 01:31:37;;;;;;;1.35;0.47;;;11.10;99.90;;;;;;5030633;28;20028;-65
2022/01/04 01:34:03;;;;;;;0.90;0.50;;;11.10;99.90;;;;;;5027532;28;20033;-65
2022/01/04 01:36:31;;;;;;;0.50;0.40;;;11.00;99.90;;;;;;5026737;28;20032;-65
2022/01/04 01:38:57;;;;;;;0.70;0.40;;;9.50;99.90;;;;;;5029226;28;20041;-65
2022/01/04 01:41:22;;;;;;;0.98;0.50;;;10.90;99.90;;;;;;5027240;28;20374;-66
2022/01/04 01:43:48;;;;;;;2.28;0.60;;;11.70;99.90;;;;;;5031617;28;20438;-65
2022/01/04 01:46:14;;;;;;;1.23;0.50;;;10.90;99.90;;;;;;5027992;28;20493;-65
2022/01/04 01:48:40;;;;;;;1.33;0.60;;;11.00;99.90;;;;;;5027547;28;20040;-65
2022/01/04 01:51:06;;;;;;;1.00;0.60;;;10.90;99.90;;;;;;5027444;28;20121;-65
2022/01/04 01:53:32;;;;;;;1.33;0.60;;;10.80;99.90;;;;;;5027882;28;20109;-65
2022/01/04 01:55:57;;;;;;;1.60;0.70;;;10.90;99.90;;;;;;5029689;28;20428;-65
2022/01/04 01:58:23;;;;;;;1.45;0.60;;;10.80;99.90;;;;;;5029104;28;20091;-65
2022/01/04 02:00:49;;;;;;;1.70;0.60;;;10.80;99.90;;;;;;5026986;28;20025;-65
2022/01/04 02:03:15;;;;;;;1.02;0.60;;;10.80;99.90;;;;;;5027761;28;20037;-65
2022/01/04 02:05:41;;;;;;;0.82;0.50;;;10.80;99.90;;;;;;5026513;28;20108;-65
2022/01/04 02:08:07;;;;;;;1.75;0.50;;;10.80;99.90;;;;;;5028957;28;20033;-65
2022/01/04 02:10:33;;;;;;;2.00;0.60;;;10.80;99.90;;;;;;5029291;28;20033;-65
2022/01/04 02:13:00;;;;;;;1.73;0.50;;;10.80;99.90;;;;;;5026550;28;20091;-66
2022/01/04 02:15:26;;;;;;;2.50;0.70;;;10.90;99.90;;;;;;5029099;28;20026;-65
2022/01/04 02:17:52;;;;;;;3.08;0.70;;;10.90;99.90;;;;;;5026459;28;20109;-65
2022/01/04 02:20:19;;;;;;;2.13;0.50;;;10.90;99.90;;;;;;5027529;28;20030;-65
2022/01/04 02:22:45;;;;;;;1.65;0.70;;;10.80;99.90;;;;;;5027061;28;20091;-65
2022/01/04 02:25:11;;;;;;;2.10;0.60;;;10.80;99.90;;;;;;5026822;28;20041;-65
2022/01/04 02:27:38;;;;;;;2.60;0.60;;;10.80;99.90;;;;;;5028680;28;20483;-65
2022/01/04 02:30:11;;;;;;;2.17;0.75;;;10.80;99.90;;;;;;5026099;28;20033;-65
2022/01/04 02:32:37;;;;;;;1.27;0.60;;;10.90;99.90;;;;;;5026925;28;20025;-65
2022/01/04 02:35:04;;;;;;;2.35;0.70;;;10.80;99.90;;;;;;5028388;28;20413;-66
2022/01/04 02:37:30;;;;;;;1.50;0.70;;;10.80;99.90;;;;;;5028564;28;20116;-65
2022/01/04 02:39:56;;;;;;;2.05;0.70;;;10.80;99.90;;;;;;5026359;28;20033;-65
2022/01/04 02:42:23;;;;;;;1.80;0.70;;;10.80;99.90;;;;;;5025203;28;20112;-65
2022/01/04 02:44:48;;;;;;;1.83;0.70;;;10.80;99.90;;;;;;5027164;28;20034;-65
2022/01/04 02:47:15;;;;;;;3.05;0.80;;;10.80;99.90;;;;;;5020849;28;20075;-65
2022/01/04 02:49:42;;;;;;;3.13;0.70;;;10.80;99.90;;;;;;5029733;28;20465;-65
2022/01/04 02:52:08;;;;;;;3.08;0.80;;;10.80;99.90;;;;;;5027859;28;20029;-65
2022/01/04 02:54:34;;;;;;;2.65;0.70;;;10.80;99.90;;;;;;5028193;28;20029;-65
2022/01/04 02:56:59;;;;;;;1.92;0.70;;;10.80;99.90;;;;;;5027408;28;20037;-65
2022/01/04 02:59:25;;;;;;;3.65;1.00;;;10.80;99.90;;;;;;5025935;28;20073;-65
2022/01/04 03:01:51;;;;;;;3.85;0.90;;;10.80;99.90;;;;;;5029074;28;20030;-65
2022/01/04 03:04:17;;;;;;;2.40;0.90;;;10.70;99.90;;;;;;5027046;28;20444;-65
2022/01/04 03:06:43;;;;;;;2.80;1.00;;;10.70;99.90;;;;;;5025811;28;20154;-65
2022/01/04 03:09:08;;;;;;;1.83;0.90;;;10.70;99.90;;;;;;5026112;28;20051;-65
2022/01/04 03:11:35;;;;;;;2.83;1.10;;;10.70;99.90;;;;;;5026006;28;20034;-65
2022/01/04 03:14:00;;;;;;;3.42;1.15;;;10.70;99.90;;;;;;5027565;28;20034;-65
2022/01/04 03:16:27;;;;;;;2.67;0.90;;;10.60;99.90;;;;;;5029149;28;20036;-66
2022/01/04 03:19:10;;;;;;;4.70;1.10;;;10.60;99.90;;;;;;5026212;28;20665;-65
2022/01/04 03:21:38;;;;;;;4.70;1.27;;;10.60;99.90;;;;;;5026359;28;20439;-65
2022/01/04 03:24:06;;;;;;;2.92;1.25;;;10.60;99.90;;;;;;5025461;28;20382;-65
2022/01/04 03:26:32;;;;;;;2.42;1.10;;;10.60;99.90;;;;;;5027462;28;20041;-65
2022/01/04 03:28:59;;;;;;;2.10;1.00;;;10.60;99.90;;;;;;5028176;28;20057;-65
2022/01/04 03:31:26;;;;;;;3.80;1.23;;;10.50;99.90;;;;;;5027781;28;20103;-65
2022/01/04 03:33:52;;;;;;;2.40;0.90;;;10.50;99.90;;;;;;5025362;28;20037;-66
2022/01/04 03:36:21;;;;;;;2.60;0.90;;;10.50;99.90;;;;;;5026979;28;20086;-66
2022/01/04 03:38:48;;;;;;;3.38;1.20;;;10.50;99.90;;;;;;5025786;28;20049;-66
2022/01/04 03:41:17;;;;;;;3.10;1.00;;;10.60;99.90;;;;;;5026016;28;20429;-65
2022/01/04 03:43:43;;;;;;;3.47;1.13;;;10.50;99.90;;;;;;5029021;28;20044;-65
2022/01/04 03:46:09;;;;;;;2.55;1.13;;;8.30;99.90;;;;;;5025959;28;20021;-65
2022/01/04 03:48:44;;;;;;;3.10;1.20;;;10.50;99.90;;;;;;5026641;28;20040;-66
2022/01/04 03:51:16;;;;;;;3.65;1.38;;;10.50;99.90;;;;;;5016573;28;20040;-66
2022/01/04 03:53:46;;;;;;;6.70;1.67;;;10.60;99.90;;;;;;5025718;28;20040;-66
2022/01/04 03:56:18;;;;;;;2.65;1.35;;;10.60;99.90;;;;;;5026210;28;20095;-66
2022/01/04 03:58:47;;;;;;;3.83;1.15;;;11.30;99.90;;;;;;5029549;28;20065;-66
2022/01/04 04:01:20;;;;;;;3.47;1.30;;;10.60;99.90;;;;;;5025019;28;20536;-66
2022/01/04 04:03:49;;;;;;;3.10;1.15;;;10.70;99.90;;;;;;5025080;28;20063;-66
2022/01/04 04:06:19;;;;;;;3.55;1.40;;;10.70;99.90;;;;;;5025443;28;20546;-66
2022/01/04 04:08:49;;;;;;;4.07;1.50;;;10.70;99.90;;;;;;5025343;28;20546;-66
2022/01/04 04:11:18;;;;;;;2.90;1.40;;;10.70;99.90;;;;;;5025417;28;20026;-66
2022/01/04 04:13:48;;;;;;;3.35;1.30;;;10.70;99.90;;;;;;5029082;28;20036;-66
2022/01/04 04:16:21;;;;;;;4.20;1.40;;;10.70;99.90;;;;;;5027300;28;20522;-66
2022/01/04 04:18:50;;;;;;;3.10;1.10;;;11.70;99.90;;;;;;5024775;28;20129;-65
2022/01/04 04:21:19;;;;;;;3.00;1.30;;;10.60;99.90;;;;;;5024518;28;20021;-65
2022/01/04 04:23:49;;;;;;;3.83;1.10;;;10.60;99.90;;;;;;5024599;28;20029;-66
2022/01/04 04:26:15;;;;;;;3.30;1.15;;;10.00;99.90;;;;;;5024925;28;20065;-65
2022/01/04 04:28:41;;;;;;;4.80;1.20;;;10.60;99.90;;;;;;5028450;28;20025;-65
2022/01/04 04:31:07;;;;;;;4.50;1.40;;;10.70;99.90;;;;;;5025037;28;20029;-65
2022/01/04 04:33:33;;;;;;;6.55;1.42;;;10.60;99.90;;;;;;5024678;28;20515;-65
2022/01/04 04:35:59;;;;;;;4.57;1.40;;;10.60;99.90;;;;;;5024241;28;20065;-66
2022/01/04 04:38:25;;;;;;;4.30;1.30;;;12.40;99.90;;;;;;5026750;28;20061;-66
2022/01/04 04:40:51;;;;;;;3.47;1.30;;;12.00;99.90;;;;;;5027218;28;20068;-65
2022/01/04 04:43:17;;;;;;;2.70;1.13;;;10.60;99.90;;;;;;5024340;28;20029;-65
2022/01/04 04:45:42;;;;;;;4.18;1.38;;;10.70;99.90;;;;;;5024003;28;20034;-65
2022/01/04 04:48:08;;;;;;;3.60;1.60;;;10.70;99.90;;;;;;5027369;28;20531;-66
2022/01/04 04:50:34;;;;;;;2.40;1.23;;;10.70;99.90;;;;;;5026671;28;20100;-66
2022/01/04 04:53:00;;;;;;;4.25;1.60;;;10.70;99.90;;;;;;5026688;28;20128;-66
2022/01/04 04:55:26;;;;;;;3.30;1.70;;;10.70;99.90;;;;;;5025572;28;20060;-66
2022/01/04 04:57:51;;;;;;;4.68;1.70;;;10.60;99.90;;;;;;5024385;28;20072;-66
2022/01/04 05:00:17;;;;;;;4.05;1.80;;;9.40;99.90;;;;;;5026935;28;20132;-66
2022/01/04 05:02:43;;;;;;;5.47;1.80;;;10.50;99.90;;;;;;5025399;28;20079;-66
2022/01/04 05:05:09;;;;;;;4.28;1.85;;;8.30;99.90;;;;;;5026315;28;20531;-66
2022/01/04 05:07:35;;;;;;;3.33;1.92;;;10.60;99.90;;;;;;5028484;28;20061;-65
2022/01/04 05:10:06;;;;;;;4.43;2.30;;;10.60;99.90;;;;;;5024677;28;20064;-66
2022/01/04 05:12:32;;;;;;;4.65;2.63;;;10.60;99.90;;;;;;5019927;28;20048;-66
2022/01/04 05:14:57;;;;;;;5.40;2.80;;;10.60;99.90;;;;;;5024411;28;20034;-65
2022/01/04 05:17:23;;;;;;;5.75;2.80;;;10.60;99.90;;;;;;5024346;28;20504;-65
2022/01/04 05:19:49;;;;;;;4.93;2.80;;;10.60;99.90;;;;;;5027836;28;20553;-66
2022/01/04 05:22:16;;;;;;;5.93;2.97;;;10.70;99.90;;;;;;5024679;28;20172;-65
2022/01/04 05:24:41;;;;;;;4.97;2.90;;;10.70;99.90;;;;;;5023463;28;20096;-65
2022/01/04 05:27:07;;;;;;;6.18;3.20;;;10.70;99.90;;;;;;5025405;28;20128;-65
2022/01/04 05:29:33;;;;;;;5.22;3.00;;;10.70;99.90;;;;;;5024712;28;20108;-62
2022/01/04 05:31:59;;;;;;;5.10;3.17;;;10.60;99.90;;;;;;5025965;28;20034;-63
2022/01/04 05:34:25;;;;;;;6.25;3.33;;;10.60;99.90;;;;;;5027911;28;20025;-65
2022/01/04 05:36:51;;;;;;;7.10;3.70;;;10.60;99.90;;;;;;5025207;28;20056;-64
2022/01/04 05:39:17;;;;;;;6.68;3.70;;;10.60;99.90;;;;;;5023477;28;20448;-64
2022/01/04 05:41:43;;;;;;;5.65;3.60;;;10.60;99.90;;;;;;5023982;28;20041;-64
2022/01/04 05:44:09;;;;;;;6.95;3.95;;;10.60;99.90;;;;;;5028970;28;20113;-66
2022/01/04 05:46:35;;;;;;;7.10;3.83;;;10.60;99.90;;;;;;5040869;28;20276;-65
2022/01/04 05:49:01;;;;;;;9.65;5.10;;;10.60;99.90;;;;;;5027772;28;20539;-65
2022/01/04 05:51:27;;;;;;;8.82;4.97;;;10.60;99.90;;;;;;5031351;28;20072;-65
2022/01/04 05:53:53;;;;;;;7.05;4.80;;;10.50;99.90;;;;;;5028568;28;20029;-66
2022/01/04 05:56:18;;;;;;;9.90;5.47;;;10.60;99.90;;;;;;5028027;28;20053;-71
2022/01/04 05:58:44;;;;;;;8.95;5.47;;;10.50;99.90;;;;;;5039078;28;20037;-69
2022/01/04 06:01:10;;;;;;;11.15;6.20;;;10.50;99.90;;;;;;5028641;28;20033;-68
2022/01/04 06:03:36;;;;;;;10.40;5.88;;;10.50;99.90;;;;;;5028562;28;20035;-66
2022/01/04 06:06:03;;;;;;;11.30;6.13;;;10.50;99.90;;;;;;5028475;28;20033;-64
2022/01/04 06:08:33;;;;;;;9.68;6.40;;;10.40;99.90;;;;;;5030164;28;20037;-64
2022/01/04 06:10:59;;;;;;;12.52;6.97;;;10.40;99.90;;;;;;5032892;28;20033;-65
2022/01/04 06:16:10;;;;;;;13.15;6.75;;;10.40;99.90;;;;;;5031911;28;20689;-64
2022/01/04 06:18:36;;;;;;;13.73;6.60;;;10.50;99.90;;;;;;5029971;28;20503;-64
2022/01/04 06:21:02;;;;;;;15.95;7.25;;;10.50;99.90;;;;;;5037402;28;20025;-64
2022/01/04 06:23:27;;;;;;;13.07;7.20;;;10.40;99.90;;;;;;5027756;28;20026;-63
2022/01/04 06:25:53;;;;;;;10.80;6.63;;;10.40;99.90;;;;;;5031086;28;20427;-64
2022/01/04 06:28:20;;;;;;;10.02;6.50;;;10.50;99.90;;;;;;5023757;28;20026;-63
2022/01/04 06:30:49;;;;;;;11.25;6.38;;;10.40;99.90;;;;;;5008010;28;20485;-64
2022/01/04 06:33:21;;;;;;;12.88;6.63;;;11.90;99.90;;;;;;5006251;28;20040;-63
2022/01/04 06:35:48;;;;;;;12.55;6.68;;;10.40;99.90;;;;;;5006813;28;20386;-65
2022/01/04 06:38:14;;;;;;;11.05;6.35;;;10.30;99.90;;;;;;5007798;28;20077;-64
2022/01/04 06:40:40;;;;;;;10.55;6.05;;;8.10;99.90;;;;;;5014464;28;20493;-65
2022/01/04 06:43:05;;;;;;;12.48;6.00;;;10.40;99.90;;;;;;5006717;28;20033;-65
2022/01/04 06:45:31;;;;;;;9.82;5.80;;;10.40;99.90;;;;;;5006520;28;20161;-65
2022/01/04 06:47:57;;;;;;;11.63;5.65;;;11.10;99.90;;;;;;5007247;28;20034;-66
2022/01/04 06:50:24;;;;;;;7.20;4.70;;;10.40;99.90;;;;;;5008160;28;20048;-66
2022/01/04 06:52:50;;;;;;;9.45;5.20;;;10.40;99.90;;;;;;5006066;28;20474;-66
2022/01/04 06:55:16;;;;;;;9.15;4.78;;;10.40;99.90;;;;;;5006456;28;20117;-66
2022/01/04 06:57:43;;;;;;;8.23;4.25;;;10.40;99.90;;;;;;5006224;28;20478;-66
2022/01/04 07:00:10;;;;;;;7.45;3.60;;;10.30;99.90;;;;;;5006297;28;20033;-66
2022/01/04 07:02:35;;;;;;;7.65;3.50;;;10.30;99.90;;;;;;5006521;28;20053;-66
2022/01/04 07:05:02;;;;;;;7.50;3.60;;;10.30;99.90;;;;;;5007537;28;20485;-66
2022/01/04 07:07:27;;;;;;;8.15;3.42;;;10.30;99.90;;;;;;5007175;28;20026;-65
2022/01/04 07:09:53;;;;;;;8.95;3.45;;;10.30;99.90;;;;;;5005649;28;20116;-65
2022/01/04 07:12:19;;;;;;;8.77;3.50;;;10.20;99.90;;;;;;5006528;28;20477;-65
2022/01/04 07:14:44;;;;;;;7.82;3.15;;;10.20;99.90;;;;;;5006023;28;20524;-65
2022/01/04 07:17:10;;;;;;;8.15;3.60;;;10.20;99.90;;;;;;5007450;28;20032;-65
2022/01/04 07:19:37;;;;;;;7.25;3.13;;;10.20;99.90;;;;;;5008150;28;20038;-65
2022/01/04 07:22:04;;;;;;;8.75;2.90;;;10.20;99.90;;;;;;5007592;28;20022;-65
2022/01/04 07:24:30;;;;;;;8.40;3.42;;;10.10;99.90;;;;;;5005021;28;20289;-64
2022/01/04 07:26:55;;;;;;;6.88;2.80;;;10.10;99.90;;;;;;5012787;28;20045;-63
2022/01/04 07:29:21;;;;;;;10.68;3.47;;;10.10;99.90;;;;;;5025872;28;20443;-64
2022/01/04 07:31:47;;;;;;;11.80;3.20;;;10.10;99.90;;;;;;5029703;28;20424;-64
2022/01/04 07:34:13;;;;;;;8.45;3.00;;;10.10;99.90;;;;;;5024615;28;20017;-62
2022/01/04 07:36:38;;;;;;;8.43;3.53;;;10.10;99.90;;;;;;5024550;28;20022;-64
2022/01/04 07:39:04;;;;;;;9.52;3.45;;;10.10;99.90;;;;;;5025547;28;20037;-64
2022/01/04 07:41:30;;;;;;;10.05;4.00;;;10.10;99.90;;;;;;5025765;28;20040;-64
2022/01/04 07:43:56;;;;;;;9.45;3.88;;;10.10;99.90;;;;;;5026985;28;20087;-65
2022/01/04 07:46:23;;;;;;;8.30;4.07;;;10.10;99.90;;;;;;5027104;28;20025;-65
2022/01/04 07:48:50;;;;;;;10.38;4.20;;;10.10;99.90;;;;;;5027653;28;20025;-65
2022/01/04 07:51:17;;;;;;;9.63;4.20;;;10.10;99.90;;;;;;5027186;28;20034;-65
2022/01/04 07:53:43;;;;;;;8.55;4.30;;;10.10;99.90;;;;;;5026568;28;20030;-65
2022/01/04 07:56:08;;;;;;;8.75;4.40;;;10.10;99.90;;;;;;5026747;28;20583;-65
2022/01/04 07:58:34;;;;;;;11.35;4.57;;;10.10;99.90;;;;;;5029372;28;20033;-65
2022/01/04 08:01:00;;;;;;;15.55;7.00;;;10.10;99.90;;;;;;5024533;28;20445;-65
2022/01/04 08:03:26;;;;;;;11.95;5.22;;;10.00;99.90;;;;;;5025676;28;20079;-65
2022/01/04 08:05:52;;;;;;;13.15;4.07;;;10.00;99.90;;;;;;5027044;28;20031;-65
2022/01/04 08:08:18;;;;;;;9.05;3.88;;;10.10;99.90;;;;;;5027755;28;20467;-65
2022/01/04 08:10:46;;;;;;;10.77;4.88;;;10.00;99.90;;;;;;5027747;28;20101;-65
2022/01/04 08:13:12;;;;;;;9.90;4.63;;;10.00;99.90;;;;;;5023117;28;20038;-65
2022/01/04 08:15:38;;;;;;;11.45;4.65;;;10.00;99.90;;;;;;5024644;28;20108;-65
2022/01/04 08:18:04;;;;;;;13.45;5.28;;;10.00;99.90;;;;;;5025187;28;20136;-65
2022/01/04 08:20:30;;;;;;;10.10;4.90;;;10.00;99.90;;;;;;5026826;28;20758;-65
2022/01/04 08:22:57;;;;;;;11.73;4.55;;;10.00;99.90;;;;;;5027601;28;20409;-65
2022/01/04 08:25:23;;;;;;;11.38;4.55;;;10.00;99.90;;;;;;5025680;28;20485;-65
2022/01/04 08:27:49;;;;;;;18.85;5.35;;;10.00;99.90;;;;;;5025517;28;20049;-65
2022/01/04 08:30:16;;;;;;;13.13;5.57;;;10.00;99.90;;;;;;5025034;28;20048;-65
2022/01/04 08:32:44;;;;;;;12.15;5.30;;;9.90;99.90;;;;;;5025103;28;20017;-65
2022/01/04 08:35:12;;;;;;;12.90;5.22;;;9.90;99.90;;;;;;5025873;28;20038;-65
2022/01/04 08:37:39;;;;;;;11.68;5.10;;;10.00;99.90;;;;;;5026978;28;20519;-65
2022/01/04 08:40:06;;;;;;;10.30;5.60;;;9.90;99.90;;;;;;5024395;28;20065;-65
2022/01/04 08:42:34;;;;;;;13.07;5.78;;;9.90;99.90;;;;;;5026711;28;20104;-65
2022/01/04 08:44:59;;;;;;;17.23;6.10;;;9.90;99.90;;;;;;5026372;28;20043;-65
2022/01/04 08:47:26;;;;;;;14.07;5.93;;;9.90;99.90;;;;;;5026223;28;20440;-65
2022/01/04 08:49:52;;;;;;;14.23;5.70;;;10.00;99.90;;;;;;5026911;28;20064;-65
2022/01/04 08:52:18;;;;;;;13.82;5.82;;;10.00;99.90;;;;;;5026124;28;20033;-65
2022/01/04 08:54:44;;;;;;;12.48;5.28;;;10.00;99.90;;;;;;5027056;28;20374;-65
2022/01/04 08:57:10;;;;;;;12.35;4.65;;;10.00;99.90;;;;;;5026305;28;20057;-65
2022/01/04 08:59:36;;;;;;;16.02;5.25;;;10.00;99.90;;;;;;5024383;28;20116;-64
2022/01/04 09:02:02;;;;;;;15.18;4.70;;;10.00;99.90;;;;;;5026918;28;20037;-64
2022/01/04 09:04:28;;;;;;;13.02;4.82;;;10.00;99.90;;;;;;5026215;28;20026;-65
2022/01/04 09:06:54;;;;;;;18.23;5.32;;;10.10;99.90;;;;;;5023741;28;20072;-64
2022/01/04 09:09:20;;;;;;;11.10;4.90;;;10.10;99.90;;;;;;5024527;28;20106;-65
2022/01/04 09:11:46;;;;;;;15.38;4.45;;;10.10;99.90;;;;;;5025283;28;20124;-65
2022/01/04 09:14:23;;;;;;;11.80;4.22;;;8.20;99.90;;;;;;5025167;28;20112;-65
2022/01/04 09:19:35;;;;;;;14.93;5.10;;;10.90;99.90;;;;;;5026968;28;20093;-64
2022/01/04 09:22:01;;;;;;;13.45;4.22;;;10.00;99.90;;;;;;5026824;28;20029;-65
2022/01/04 09:24:26;;;;;;;16.63;4.30;;;10.10;99.90;;;;;;5029910;28;20061;-65
2022/01/04 09:26:52;;;;;;;10.95;3.90;;;10.10;99.90;;;;;;5027688;28;20068;-65
2022/01/04 09:29:19;;;;;;;13.45;4.10;;;10.10;99.90;;;;;;5028196;28;20283;-65
2022/01/04 09:31:51;;;;;;;8.85;3.88;;;10.10;99.90;;;;;;5031227;28;20065;-65
2022/01/04 09:34:17;;;;;;;13.55;4.22;;;10.20;99.90;;;;;;5030713;28;20026;-65
2022/01/04 09:36:43;;;;;;;8.90;4.00;;;10.50;99.90;;;;;;5028066;28;20108;-65
2022/01/04 09:39:13;;;;;;;10.00;3.10;;;10.30;99.90;;;;;;5028393;28;20049;-65
2022/01/04 09:41:40;;;;;;;12.15;3.80;;;10.30;99.90;;;;;;5027916;28;20033;-65
2022/01/04 09:44:05;;;;;;;10.60;3.42;;;10.30;99.90;;;;;;5030201;28;20018;-65
2022/01/04 09:46:33;;;;;;;16.90;3.95;;;10.30;99.90;;;;;;5029517;28;20071;-65
2022/01/04 09:48:58;;;;;;;10.68;3.17;;;10.30;99.90;;;;;;5027614;28;20817;-65
2022/01/04 09:51:27;;;;;;;11.55;3.10;;;10.20;99.90;;;;;;5028058;28;20104;-65
2022/01/04 09:53:53;;;;;;;14.02;3.28;;;10.20;99.90;;;;;;5028397;28;20081;-65
2022/01/04 09:56:19;;;;;;;16.55;2.92;;;10.30;99.90;;;;;;5027631;28;20104;-65
2022/01/04 09:58:45;;;;;;;14.98;3.33;;;10.30;99.90;;;;;;5031429;28;20121;-65
2022/01/04 10:01:38;;;;;;;13.10;2.97;;;10.30;99.90;;;;;;5027653;28;20033;-65
2022/01/04 10:04:05;;;;;;;15.00;2.88;;;10.30;99.90;;;;;;5027273;28;20120;-65
2022/01/04 10:06:31;;;;;;;17.17;3.58;;;10.40;99.90;;;;;;5035153;28;20033;-65
2022/01/04 10:09:01;;;;;;;10.57;2.72;;;10.40;99.90;;;;;;5029946;28;20784;-65
2022/01/04 10:11:50;;;;;;;18.47;3.00;;;10.40;99.90;;;;;;5027311;28;20104;-65
2022/01/04 10:14:27;;;;;;;9.90;2.85;;;10.40;99.90;;;;;;5027773;28;20280;-64
2022/01/04 10:16:55;;;;;;;14.80;3.17;;;10.50;99.90;;;;;;5026516;28;20057;-64
2022/01/04 10:19:29;;;;;;;13.07;3.00;;;10.50;99.90;;;;;;5030479;28;20029;-65
2022/01/04 10:22:23;;;;;;;14.45;2.97;;;10.50;99.90;;;;;;5027417;28;20090;-65
2022/01/04 10:24:53;;;;;;;13.20;2.80;;;10.60;99.90;;;;;;5024028;28;20037;-65
2022/01/04 10:27:27;;;;;;;16.40;3.33;;;10.60;99.90;;;;;;5025673;28;20486;-65
2022/01/04 10:30:14;;;;;;;15.55;3.20;;;10.60;99.90;;;;;;5025281;28;20033;-65
2022/01/04 10:32:45;;;;;;;19.45;3.67;;;10.60;99.90;;;;;;5025367;28;20045;-65
2022/01/04 10:35:11;;;;;;;;;;;10.70;99.90;;;;;;5026205;28;20080;-65
2022/01/04 10:37:39;;;;;;;14.55;3.20;;;10.80;99.90;;;;;;5029854;28;19913;-65
2022/01/04 10:40:08;;;;;;;23.73;3.75;;;10.80;99.90;;;;;;5025865;28;20033;-65
2022/01/04 10:42:33;;;;;;;12.63;3.45;;;10.80;99.90;;;;;;5021618;28;20032;-65
2022/01/04 10:45:19;;;;;;;12.25;2.97;;;10.80;99.90;;;;;;5028227;28;20112;-65
2022/01/04 10:47:45;;;;;;;12.02;3.10;;;10.80;99.90;;;;;;5028310;28;20040;-65
2022/01/04 10:50:10;;;;;;;12.70;3.22;;;10.90;99.90;;;;;;5027926;28;20423;-64
2022/01/04 10:52:36;;;;;;;15.95;3.22;;;10.90;99.90;;;;;;5029274;28;20064;-65
2022/01/04 10:55:13;;;;;;;10.98;3.40;;;10.90;99.90;;;;;;5026295;28;20033;-65
2022/01/04 10:57:38;;;;;;;13.13;3.03;;;11.10;99.90;;;;;;5025924;28;20035;-64
2022/01/04 11:00:16;;;;;;;12.45;2.83;;;11.10;99.90;;;;;;5028029;28;20120;-65
2022/01/04 11:02:42;;;;;;;15.75;3.10;;;11.10;99.90;;;;;;5026462;28;20037;-65
2022/01/04 11:05:12;;;;;;;14.70;2.88;;;11.20;99.90;;;;;;5027901;28;20063;-65
2022/01/04 11:08:05;;;;;;;18.05;3.10;;;11.40;99.90;;;;;;5030135;28;20056;-65
2022/01/04 11:10:36;;;;;;;11.75;2.92;;;11.20;99.90;;;;;;5028034;28;20033;-65
2022/01/04 11:13:03;;;;;;;12.27;2.53;;;11.20;99.90;;;;;;5025877;28;20037;-65
2022/01/04 11:15:30;;;;;;;13.25;2.70;;;11.40;99.90;;;;;;5025466;28;20481;-65
2022/01/04 11:17:58;;;;;;;12.63;3.10;;;11.50;99.90;;;;;;5025813;28;20552;-65
2022/01/04 11:20:24;;;;;;;13.85;2.40;;;11.50;99.90;;;;;;5026283;28;20034;-65
2022/01/04 11:22:51;;;;;;;14.02;2.70;;;11.60;99.90;;;;;;5029617;28;20033;-64
2022/01/04 11:25:21;;;;;;;21.30;3.85;;;11.70;99.90;;;;;;5026675;28;20029;-65
2022/01/04 11:27:49;;;;;;;17.58;5.05;;;11.90;99.90;;;;;;5025359;28;20116;-65
2022/01/04 11:30:50;;;;;;;15.13;2.67;;;11.90;99.90;;;;;;5025596;28;20037;-65
2022/01/04 11:33:28;;;;;;;16.08;2.55;;;11.90;99.90;;;;;;5024318;28;20037;-65
2022/01/04 11:35:55;;;;;;;13.15;2.38;;;12.00;99.90;;;;;;5025800;28;20033;-65
2022/01/04 11:38:35;;;;;;;16.67;2.53;;;12.30;99.90;;;;;;5025808;28;20104;-65
2022/01/04 11:41:01;;;;;;;13.68;2.10;;;12.10;99.90;;;;;;5039866;28;20025;-65
2022/01/04 11:43:38;;;;;;;14.02;2.08;;;12.30;99.90;;;;;;5028892;28;20033;-65
2022/01/04 11:46:05;;;;;;;12.60;2.70;;;12.80;99.90;;;;;;5024775;28;20021;-65
2022/01/04 11:48:39;;;;;;;13.57;2.30;;;12.80;99.90;;;;;;5025473;28;20025;-65
2022/01/04 11:51:34;;;;;;;10.38;2.03;;;12.40;99.90;;;;;;5025194;28;20500;-65
2022/01/04 11:54:18;;;;;;;11.68;1.80;;;12.20;99.90;;;;;;5024743;28;20045;-65
2022/01/04 11:56:54;;;;;;;12.40;1.95;;;12.20;99.90;;;;;;5025014;28;20108;-65
2022/01/04 11:59:22;;;;;;;14.63;2.03;;;12.30;99.90;;;;;;5022796;28;20103;-65
2022/01/04 12:01:49;;;;;;;12.25;1.65;;;12.60;99.90;;;;;;5026339;28;20033;-65
2022/01/04 12:04:47;;;;;;;9.43;1.60;;;12.50;99.90;;;;;;5024843;28;20133;-65
2022/01/04 12:07:44;;;;;;;9.60;1.50;;;12.40;99.90;;;;;;5024730;28;20029;-65
2022/01/04 12:10:21;;;;;;;8.57;1.45;;;12.30;99.90;;;;;;5023633;28;20497;-65
2022/01/04 12:13:04;;;;;;;9.07;1.63;;;12.40;99.90;;;;;;5024809;28;20040;-65
2022/01/04 12:15:51;;;;;;;9.65;1.60;;;12.30;99.90;;;;;;5025076;28;20488;-64
2022/01/04 12:18:23;;;;;;;7.95;1.17;;;12.10;99.90;;;;;;5025598;28;20092;-64
2022/01/04 12:20:53;;;;;;;9.43;2.45;;;11.70;99.90;;;;;;5026411;28;20515;-64
2022/01/04 12:23:31;;;;;;;9.52;2.78;;;10.70;99.90;;;;;;5025040;28;20215;-63
2022/01/04 12:26:03;;;;;;;8.43;1.60;;;9.30;99.90;;;;;;5022738;28;20105;-64
2022/01/04 12:28:31;;;;;;;6.05;1.20;;;10.10;99.90;;;;;;5026827;28;20512;-65
2022/01/04 12:31:22;;;;;;;8.20;1.25;;;11.80;99.90;;;;;;5025278;28;20075;-65
2022/01/04 12:33:58;;;;;;;;;;;11.80;99.90;;;;;;5022818;28;20025;-65
2022/01/04 12:36:36;;;;;;;7.03;1.10;;;11.70;99.90;;;;;;5024339;28;20010;-65
2022/01/04 12:39:09;;;;;;;9.23;1.20;;;13.70;99.90;;;;;;5022596;28;20041;-65
2022/01/04 12:41:36;;;;;;;6.88;1.08;;;12.30;99.90;;;;;;5027505;28;20470;-65
2022/01/04 12:44:04;;;;;;;8.20;1.10;;;12.80;99.90;;;;;;5040440;28;20385;-65
2022/01/04 12:46:32;;;;;;;7.03;1.20;;;13.90;96.50;;;;;;5037264;28;20036;-66
2022/01/04 12:49:03;;;;;;;7.70;1.75;;;14.80;92.80;;;;;;5026342;28;20849;-66
2022/01/04 12:51:44;;;;;;;8.32;1.20;;;14.80;73.70;;;;;;5025712;28;20032;-66
2022/01/04 12:54:11;;;;;;;6.40;1.20;;;17.60;65.70;;;;;;5026897;28;20033;-66
2022/01/04 12:56:47;;;;;;;10.90;3.90;;;18.30;62.70;;;;;;5026170;28;20032;-66